createdAt,value
2018-03-29T00:01:04.756Z,0
2018-03-29T00:02:14.618Z,0
2018-03-29T00:03:24.684Z,0
2018-03-29T00:04:34.760Z,0
2018-03-29T00:05:44.586Z,0
2018-03-29T00:06:54.372Z,0
2018-03-29T00:08:04.463Z,0
2018-03-29T00:09:14.548Z,0
2018-03-29T00:10:24.622Z,0
2018-03-29T00:11:34.162Z,0
2018-03-29T00:12:43.715Z,0
2018-03-29T00:13:53.038Z,0
2018-03-29T00:15:03.104Z,0
2018-03-29T00:16:12.915Z,0
2018-03-29T00:17:22.709Z,0
2018-03-29T00:18:32.258Z,0
2018-03-29T00:19:41.593Z,0
2018-03-29T00:20:51.654Z,0
2018-03-29T00:22:01.455Z,0
2018-03-29T00:23:11.272Z,0
2018-03-29T00:24:21.334Z,0
2018-03-29T00:25:31.484Z,0
2018-03-29T00:26:41.297Z,0
2018-03-29T00:27:51.388Z,0
2018-03-29T00:29:01.208Z,0
2018-03-29T00:30:11.263Z,0
2018-03-29T00:31:20.883Z,0
2018-03-29T00:32:30.145Z,0
2018-03-29T00:33:40.200Z,0
2018-03-29T00:34:50.259Z,0
2018-03-29T00:36:00.318Z,0
2018-03-29T00:37:10.161Z,0
2018-03-29T00:38:20.232Z,0
2018-03-29T00:39:30.333Z,0
2018-03-29T00:40:40.395Z,0
2018-03-29T00:41:50.202Z,0
2018-03-29T00:43:00.271Z,0
2018-03-29T00:44:10.110Z,0
2018-03-29T00:45:20.162Z,0
2018-03-29T00:46:30.240Z,0
2018-03-29T00:47:39.781Z,0
2018-03-29T00:48:49.908Z,0
2018-03-29T00:49:59.462Z,0
2018-03-29T00:51:09.517Z,0
2018-03-29T00:52:19.586Z,0
2018-03-29T00:53:29.662Z,0
2018-03-29T00:54:39.723Z,0
2018-03-29T00:55:49.526Z,0
2018-03-29T00:56:59.590Z,0
2018-03-29T00:58:09.426Z,0
2018-03-29T00:59:19.508Z,0
2018-03-29T01:00:29.618Z,0
2018-03-29T01:01:39.429Z,0
2018-03-29T01:02:49.521Z,0
2018-03-29T01:03:59.582Z,0
2018-03-29T01:05:09.652Z,0
2018-03-29T01:06:19.520Z,0
2018-03-29T01:07:29.644Z,0
2018-03-29T01:08:39.703Z,0
2018-03-29T01:09:49.499Z,0
2018-03-29T01:10:59.570Z,0
2018-03-29T01:12:09.120Z,0
2018-03-29T01:13:19.192Z,0
2018-03-29T01:14:29.244Z,0
2018-03-29T01:15:39.055Z,0
2018-03-29T01:16:49.127Z,0
2018-03-29T01:17:59.188Z,0
2018-03-29T01:19:09.006Z,0
2018-03-29T01:20:19.155Z,0
2018-03-29T01:21:29.209Z,0
2018-03-29T01:22:39.281Z,0
2018-03-29T01:23:49.357Z,0
2018-03-29T01:24:59.164Z,0
2018-03-29T01:26:08.974Z,0
2018-03-29T01:27:19.046Z,0
2018-03-29T01:28:29.122Z,0
2018-03-29T01:29:39.178Z,0
2018-03-29T01:30:49.240Z,0
2018-03-29T01:31:59.032Z,0
2018-03-29T01:33:09.084Z,0
2018-03-29T01:34:19.153Z,0
2018-03-29T01:35:29.000Z,0
2018-03-29T01:36:38.837Z,0
2018-03-29T01:37:48.645Z,0
2018-03-29T01:38:58.447Z,0
2018-03-29T01:40:08.505Z,0
2018-03-29T01:41:18.567Z,0
2018-03-29T01:42:28.626Z,0
2018-03-29T01:43:38.434Z,0
2018-03-29T01:44:48.229Z,0
2018-03-29T01:45:58.054Z,0
2018-03-29T01:47:08.113Z,0
2018-03-29T01:48:17.947Z,0
2018-03-29T01:49:27.734Z,0
2018-03-29T01:50:37.544Z,0
2018-03-29T01:51:47.621Z,0
2018-03-29T01:52:57.738Z,0
2018-03-29T01:54:07.818Z,0
2018-03-29T01:55:17.873Z,0
2018-03-29T01:56:27.677Z,0
2018-03-29T01:57:37.228Z,0
2018-03-29T01:58:46.765Z,0
2018-03-29T01:59:56.048Z,0
2018-03-29T02:01:06.213Z,0
2018-03-29T02:02:16.041Z,0
2018-03-29T02:03:26.114Z,0
2018-03-29T02:04:36.228Z,0
2018-03-29T02:05:46.060Z,0
2018-03-29T02:06:56.148Z,0
2018-03-29T02:08:05.940Z,0
2018-03-29T02:09:15.777Z,0
2018-03-29T02:10:25.584Z,0
2018-03-29T02:11:35.118Z,0
2018-03-29T02:12:44.917Z,0
2018-03-29T02:13:54.457Z,0
2018-03-29T02:15:04.247Z,0
2018-03-29T02:16:14.307Z,0
2018-03-29T02:17:23.864Z,0
2018-03-29T02:18:33.928Z,0
2018-03-29T02:19:43.728Z,0
2018-03-29T02:20:53.529Z,0
2018-03-29T02:22:03.135Z,0
2018-03-29T02:23:12.927Z,0
2018-03-29T02:24:22.751Z,0
2018-03-29T02:25:32.543Z,0
2018-03-29T02:26:42.620Z,0
2018-03-29T02:27:52.681Z,0
2018-03-29T02:29:02.742Z,0
2018-03-29T02:30:12.294Z,0
2018-03-29T02:31:22.100Z,0
2018-03-29T02:32:31.907Z,0
2018-03-29T02:33:41.855Z,0
2018-03-29T02:34:51.936Z,0
2018-03-29T02:36:02.004Z,0
2018-03-29T02:37:11.550Z,0
2018-03-29T02:38:21.641Z,0
2018-03-29T02:39:31.473Z,0
2018-03-29T02:40:41.020Z,0
2018-03-29T02:41:51.101Z,0
2018-03-29T02:43:00.932Z,0
2018-03-29T02:44:10.779Z,0
2018-03-29T02:45:20.898Z,0
2018-03-29T02:46:30.696Z,0
2018-03-29T02:47:40.769Z,0
2018-03-29T02:48:50.584Z,0
2018-03-29T02:50:00.661Z,0
2018-03-29T02:51:10.546Z,0
2018-03-29T02:52:20.098Z,0
2018-03-29T02:53:29.920Z,0
2018-03-29T02:54:39.999Z,0
2018-03-29T02:55:49.617Z,0
2018-03-29T02:56:59.166Z,0
2018-03-29T02:58:08.971Z,0
2018-03-29T02:59:18.541Z,0
2018-03-29T03:00:28.356Z,0
2018-03-29T03:01:38.461Z,0
2018-03-29T03:02:48.028Z,0
2018-03-29T03:03:58.170Z,0
2018-03-29T03:05:08.241Z,0
2018-03-29T03:36:59.926Z,0
2018-03-29T03:38:09.718Z,0
2018-03-29T03:39:19.757Z,0
2018-03-29T03:40:29.804Z,0
2018-03-29T03:41:39.856Z,0
2018-03-29T03:42:49.652Z,0
2018-03-29T03:43:59.453Z,0
2018-03-29T03:45:09.278Z,0
2018-03-29T03:46:19.329Z,0
2018-03-29T03:47:30.104Z,0
2018-03-29T03:48:43.772Z,0
2018-03-29T03:49:54.335Z,0
2018-03-29T03:51:04.391Z,0
2018-03-29T03:52:14.204Z,0
2018-03-29T03:53:24.248Z,0
2018-03-29T03:54:34.320Z,0
2018-03-29T03:55:44.409Z,0
2018-03-29T03:56:54.483Z,0
2018-03-29T03:58:04.285Z,0
2018-03-29T03:59:14.086Z,0
2018-03-29T04:00:24.190Z,0
2018-03-29T04:01:34.271Z,0
2018-03-29T04:02:44.361Z,0
2018-03-29T04:03:54.453Z,0
2018-03-29T04:05:04.262Z,0
2018-03-29T04:06:14.359Z,0
2018-03-29T04:07:24.157Z,0
2018-03-29T04:08:34.208Z,0
2018-03-29T04:09:44.279Z,0
2018-03-29T04:10:54.351Z,0
2018-03-29T04:12:04.467Z,0
2018-03-29T04:13:14.529Z,0
2018-03-29T04:14:24.589Z,0
2018-03-29T04:15:34.656Z,0
2018-03-29T04:16:44.727Z,0
2018-03-29T04:17:54.863Z,0
2018-03-29T04:19:04.679Z,0
2018-03-29T04:20:14.516Z,0
2018-03-29T04:21:24.582Z,0
2018-03-29T04:22:34.632Z,0
2018-03-29T04:23:44.485Z,0
2018-03-29T04:24:54.296Z,0
2018-03-29T04:26:04.102Z,0
2018-03-29T04:27:14.175Z,0
2018-03-29T04:28:24.224Z,0
2018-03-29T04:29:34.280Z,0
2018-03-29T04:30:43.831Z,0
2018-03-29T04:31:53.627Z,0
2018-03-29T04:33:03.437Z,0
2018-03-29T04:34:13.510Z,0
2018-03-29T04:35:23.383Z,0
2018-03-29T04:36:33.184Z,0
2018-03-29T04:37:43.282Z,0
2018-03-29T04:38:53.080Z,0
2018-03-29T04:40:02.919Z,0
2018-03-29T04:41:12.733Z,0
2018-03-29T04:42:22.544Z,0
2018-03-29T04:43:32.621Z,0
2018-03-29T04:44:42.684Z,0
2018-03-29T04:45:52.222Z,0
2018-03-29T04:47:02.029Z,0
2018-03-29T04:48:12.126Z,0
2018-03-29T04:49:22.268Z,0
2018-03-29T04:50:32.070Z,0
2018-03-29T04:51:41.868Z,0
2018-03-29T04:52:51.653Z,0
2018-03-29T04:54:01.184Z,0
2018-03-29T04:55:11.248Z,0
2018-03-29T04:56:21.322Z,0
2018-03-29T04:57:31.138Z,0
2018-03-29T04:58:41.193Z,0
2018-03-29T04:59:51.249Z,0
2018-03-29T05:01:01.026Z,0
2018-03-29T05:02:10.578Z,0
2018-03-29T05:03:20.654Z,0
2018-03-29T05:04:30.778Z,0
2018-03-29T05:05:40.308Z,0
2018-03-29T05:06:50.105Z,0
2018-03-29T05:07:59.659Z,0
2018-03-29T05:09:09.456Z,0
2018-03-29T05:10:19.309Z,0
2018-03-29T05:11:29.368Z,0
2018-03-29T05:12:38.973Z,0
2018-03-29T05:13:48.776Z,0
2018-03-29T05:14:58.573Z,0
2018-03-29T05:16:08.459Z,0
2018-03-29T05:17:18.270Z,0
2018-03-29T05:18:28.052Z,0
2018-03-29T05:19:37.863Z,0
2018-03-29T05:20:47.936Z,0
2018-03-29T05:21:58.017Z,0
2018-03-29T05:23:07.565Z,0
2018-03-29T05:24:17.632Z,5
2018-03-29T05:25:27.694Z,5
2018-03-29T05:26:37.952Z,5
2018-03-29T05:27:48.064Z,5
2018-03-29T05:28:58.183Z,5
2018-03-29T05:30:07.470Z,5
2018-03-29T05:31:17.333Z,5
2018-03-29T05:32:26.872Z,5
2018-03-29T05:33:36.993Z,5
2018-03-29T05:34:46.806Z,5
2018-03-29T05:35:56.873Z,5
2018-03-29T05:37:06.697Z,5
2018-03-29T05:38:16.232Z,10
2018-03-29T05:39:25.559Z,10
2018-03-29T05:40:35.368Z,10
2018-03-29T05:41:45.176Z,10
2018-03-29T05:42:55.312Z,10
2018-03-29T05:44:05.375Z,10
2018-03-29T05:45:15.488Z,10
2018-03-29T05:46:25.557Z,10
2018-03-29T05:47:35.627Z,15
2018-03-29T05:48:45.439Z,15
2018-03-29T05:49:55.274Z,15
2018-03-29T05:51:05.351Z,15
2018-03-29T05:52:15.493Z,15
2018-03-29T05:53:25.298Z,20
2018-03-29T05:54:35.116Z,20
2018-03-29T05:55:45.183Z,20
2018-03-29T05:56:54.986Z,25
2018-03-29T05:58:04.787Z,25
2018-03-29T05:59:14.860Z,25
2018-03-29T06:00:24.911Z,25
2018-03-29T06:01:34.706Z,25
2018-03-29T06:02:44.820Z,25
2018-03-29T06:03:54.360Z,25
2018-03-29T06:05:03.897Z,25
2018-03-29T06:06:13.959Z,30
2018-03-29T06:07:24.045Z,30
2018-03-29T06:08:34.194Z,35
2018-03-29T06:09:44.285Z,35
2018-03-29T06:10:54.381Z,35
2018-03-29T06:12:04.185Z,35
2018-03-29T06:13:13.992Z,35
2018-03-29T06:14:23.543Z,35
2018-03-29T06:15:33.368Z,35
2018-03-29T06:16:43.440Z,35
2018-03-29T06:17:53.356Z,35
2018-03-29T06:19:02.637Z,35
2018-03-29T06:20:12.764Z,35
2018-03-29T06:21:22.345Z,35
2018-03-29T06:22:32.411Z,35
2018-03-29T06:23:42.556Z,35
2018-03-29T06:24:52.623Z,35
2018-03-29T06:26:02.685Z,35
2018-03-29T06:27:12.260Z,35
2018-03-29T06:28:22.066Z,35
2018-03-29T06:29:32.178Z,40
2018-03-29T06:30:41.735Z,40
2018-03-29T06:31:51.276Z,40
2018-03-29T06:33:00.585Z,45
2018-03-29T06:34:10.396Z,45
2018-03-29T06:35:20.209Z,45
2018-03-29T06:36:30.281Z,45
2018-03-29T06:37:40.399Z,50
2018-03-29T06:38:50.528Z,55
2018-03-29T06:40:00.332Z,60
2018-03-29T06:41:10.128Z,60
2018-03-29T06:42:20.228Z,65
2018-03-29T06:43:30.039Z,70
2018-03-29T06:44:39.844Z,70
2018-03-29T06:45:49.937Z,70
2018-03-29T06:47:00.152Z,75
2018-03-29T06:48:10.314Z,75
2018-03-29T06:49:20.132Z,75
2018-03-29T06:50:30.202Z,80
2018-03-29T06:51:40.032Z,80
2018-03-29T06:52:50.085Z,85
2018-03-29T06:54:00.164Z,85
2018-03-29T06:55:09.988Z,85
2018-03-29T06:56:19.785Z,85
2018-03-29T06:57:29.600Z,85
2018-03-29T06:58:39.468Z,90
2018-03-29T06:59:49.551Z,95
2018-03-29T07:00:59.261Z,100
2018-03-29T07:02:09.151Z,105
2018-03-29T07:03:19.239Z,115
2018-03-29T07:04:29.038Z,120
2018-03-29T07:05:38.574Z,125
2018-03-29T07:06:48.632Z,125
2018-03-29T07:07:58.702Z,135
2018-03-29T07:09:08.780Z,125
2018-03-29T07:10:18.080Z,125
2018-03-29T07:11:27.640Z,130
2018-03-29T07:12:37.767Z,130
2018-03-29T07:13:47.828Z,130
2018-03-29T07:14:58.005Z,130
2018-03-29T07:16:07.815Z,130
2018-03-29T07:17:17.617Z,130
2018-03-29T07:18:27.433Z,135
2018-03-29T07:19:36.981Z,135
2018-03-29T07:20:46.783Z,145
2018-03-29T07:21:56.640Z,140
2018-03-29T07:23:06.514Z,140
2018-03-29T07:24:16.047Z,140
2018-03-29T07:25:25.335Z,135
2018-03-29T07:26:35.130Z,135
2018-03-29T07:27:45.201Z,130
2018-03-29T07:28:55.629Z,130
2018-03-29T07:30:05.701Z,125
2018-03-29T07:31:15.519Z,125
2018-03-29T07:32:25.606Z,120
2018-03-29T07:33:35.150Z,120
2018-03-29T07:34:44.701Z,120
2018-03-29T07:35:54.770Z,120
2018-03-29T07:37:04.876Z,120
2018-03-29T07:38:14.149Z,120
2018-03-29T07:39:23.708Z,125
2018-03-29T07:40:33.513Z,120
2018-03-29T07:41:43.639Z,120
2018-03-29T07:42:53.710Z,115
2018-03-29T07:44:03.524Z,115
2018-03-29T07:45:13.333Z,115
2018-03-29T07:46:23.118Z,115
2018-03-29T07:47:32.683Z,115
2018-03-29T07:48:42.229Z,115
2018-03-29T07:49:52.033Z,115
2018-03-29T07:51:02.107Z,115
2018-03-29T07:52:11.680Z,115
2018-03-29T07:53:21.525Z,115
2018-03-29T07:54:31.598Z,115
2018-03-29T07:55:41.680Z,120
2018-03-29T07:56:51.226Z,120
2018-03-29T07:58:01.185Z,120
2018-03-29T07:59:11.027Z,120
2018-03-29T08:00:20.823Z,120
2018-03-29T08:01:30.643Z,120
2018-03-29T08:02:40.212Z,115
2018-03-29T08:03:50.012Z,115
2018-03-29T08:05:00.136Z,115
2018-03-29T08:06:09.994Z,115
2018-03-29T08:07:19.858Z,115
2018-03-29T08:08:29.974Z,115
2018-03-29T08:09:40.044Z,110
2018-03-29T08:10:49.845Z,110
2018-03-29T08:11:59.911Z,105
2018-03-29T08:13:09.975Z,105
2018-03-29T08:14:19.773Z,105
2018-03-29T08:15:29.871Z,105
2018-03-29T08:16:39.425Z,100
2018-03-29T08:17:48.703Z,100
2018-03-29T08:18:58.506Z,100
2018-03-29T08:20:08.586Z,100
2018-03-29T08:21:18.383Z,100
2018-03-29T08:22:28.560Z,100
2018-03-29T08:23:38.428Z,100
2018-03-29T08:24:48.499Z,105
2018-03-29T08:25:58.315Z,105
2018-03-29T08:27:08.427Z,105
2018-03-29T08:28:18.304Z,105
2018-03-29T08:29:28.136Z,105
2018-03-29T08:30:37.952Z,105
2018-03-29T08:31:47.764Z,105
2018-03-29T08:32:57.846Z,105
2018-03-29T08:34:07.455Z,100
2018-03-29T08:35:16.989Z,105
2018-03-29T08:36:26.795Z,105
2018-03-29T08:37:36.618Z,110
2018-03-29T08:38:46.164Z,115
2018-03-29T08:39:55.977Z,115
2018-03-29T08:41:05.817Z,120
2018-03-29T08:42:15.903Z,120
2018-03-29T08:43:26.075Z,120
2018-03-29T08:51:17.528Z,125
2018-03-29T08:52:27.346Z,120
2018-03-29T08:53:37.554Z,120
2018-03-29T08:54:47.629Z,120
2018-03-29T08:55:57.702Z,120
2018-03-29T08:57:07.729Z,120
2018-03-29T08:58:17.586Z,120
2018-03-29T08:59:27.678Z,120
2018-03-29T09:00:37.820Z,115
2018-03-29T09:01:47.882Z,115
2018-03-29T09:02:57.697Z,120
2018-03-29T09:04:07.331Z,115
2018-03-29T09:05:16.937Z,120
2018-03-29T09:06:26.504Z,120
2018-03-29T09:07:36.596Z,125
2018-03-29T09:08:46.465Z,125
2018-03-29T09:09:56.115Z,125
2018-03-29T09:11:05.657Z,130
2018-03-29T09:12:15.722Z,130
2018-03-29T09:13:25.806Z,130
2018-03-29T09:14:35.620Z,130
2018-03-29T09:15:45.445Z,130
2018-03-29T09:16:55.528Z,130
2018-03-29T09:18:05.367Z,130
2018-03-29T09:19:15.461Z,125
2018-03-29T09:20:25.281Z,125
2018-03-29T09:21:35.404Z,125
2018-03-29T09:22:45.477Z,130
2018-03-29T09:23:55.074Z,125
2018-03-29T09:25:04.630Z,130
2018-03-29T09:26:14.455Z,135
2018-03-29T09:27:24.842Z,135
2018-03-29T09:28:34.958Z,130
2018-03-29T09:29:44.816Z,130
2018-03-29T09:30:54.804Z,125
2018-03-29T09:32:16.026Z,125
2018-03-29T09:33:26.153Z,125
2018-03-29T09:34:36.103Z,125
2018-03-29T09:35:46.089Z,120
2018-03-29T09:36:55.686Z,120
2018-03-29T09:38:05.287Z,120
2018-03-29T09:39:14.651Z,120
2018-03-29T09:40:24.508Z,125
2018-03-29T09:41:34.646Z,125
2018-03-29T09:42:44.244Z,125
2018-03-29T09:43:54.348Z,130
2018-03-29T09:45:04.477Z,135
2018-03-29T09:46:14.308Z,140
2018-03-29T09:47:24.382Z,145
2018-03-29T09:48:33.683Z,155
2018-03-29T09:49:43.489Z,160
2018-03-29T09:50:53.560Z,160
2018-03-29T09:52:03.393Z,160
2018-03-29T09:53:13.290Z,165
2018-03-29T09:54:22.860Z,170
2018-03-29T09:55:32.683Z,175
2018-03-29T09:56:42.772Z,180
2018-03-29T09:57:52.620Z,185
2018-03-29T09:59:02.450Z,185
2018-03-29T10:00:12.293Z,190
2018-03-29T10:01:22.377Z,195
2018-03-29T10:02:32.210Z,200
2018-03-29T10:03:42.284Z,200
2018-03-29T10:04:52.098Z,200
2018-03-29T10:06:02.195Z,205
2018-03-29T10:07:12.025Z,215
2018-03-29T10:08:22.115Z,220
2018-03-29T10:09:32.200Z,235
2018-03-29T10:10:42.306Z,250
2018-03-29T10:11:52.181Z,255
2018-03-29T10:13:02.280Z,260
2018-03-29T10:14:12.112Z,265
2018-03-29T10:15:21.940Z,265
2018-03-29T10:16:32.032Z,265
2018-03-29T10:17:41.658Z,260
2018-03-29T10:18:51.862Z,250
2018-03-29T10:20:01.942Z,250
2018-03-29T10:21:11.808Z,250
2018-03-29T10:22:21.907Z,255
2018-03-29T10:23:32.058Z,265
2018-03-29T10:24:41.088Z,270
2018-03-29T10:25:50.924Z,265
2018-03-29T10:27:00.762Z,265
2018-03-29T10:28:10.584Z,275
2018-03-29T10:29:20.716Z,270
2018-03-29T10:30:30.590Z,270
2018-03-29T10:31:40.769Z,270
2018-03-29T10:32:50.871Z,260
2018-03-29T10:34:00.957Z,270
2018-03-29T10:35:10.809Z,270
2018-03-29T10:36:20.396Z,280
2018-03-29T10:37:30.525Z,290
2018-03-29T10:38:40.099Z,295
2018-03-29T10:39:49.666Z,290
2018-03-29T10:40:59.775Z,285
2018-03-29T10:42:09.594Z,285
2018-03-29T10:43:19.147Z,305
2018-03-29T10:44:29.276Z,305
2018-03-29T10:45:39.367Z,310
2018-03-29T10:46:48.731Z,325
2018-03-29T10:47:58.832Z,330
2018-03-29T10:49:08.399Z,330
2018-03-29T10:50:18.270Z,355
2018-03-29T10:51:28.117Z,345
2018-03-29T10:52:38.366Z,345
2018-03-29T10:53:48.479Z,345
2018-03-29T10:54:58.292Z,335
2018-03-29T10:56:08.372Z,290
2018-03-29T10:57:17.663Z,295
2018-03-29T10:58:27.758Z,310
2018-03-29T10:59:37.327Z,310
2018-03-29T11:00:47.148Z,325
2018-03-29T11:01:56.988Z,305
2018-03-29T11:03:07.083Z,300
2018-03-29T11:04:16.985Z,300
2018-03-29T11:05:27.078Z,315
2018-03-29T11:06:37.177Z,320
2018-03-29T11:07:47.002Z,305
2018-03-29T11:08:56.834Z,300
2018-03-29T11:10:06.650Z,295
2018-03-29T11:11:16.746Z,295
2018-03-29T11:12:26.559Z,285
2018-03-29T11:13:36.647Z,300
2018-03-29T11:14:46.719Z,290
2018-03-29T11:15:56.272Z,280
2018-03-29T11:17:06.101Z,280
2018-03-29T11:18:16.260Z,295
2018-03-29T11:19:26.353Z,280
2018-03-29T11:20:36.430Z,310
2018-03-29T11:21:45.995Z,270
2018-03-29T11:22:55.844Z,235
2018-03-29T11:24:05.699Z,225
2018-03-29T11:25:15.588Z,230
2018-03-29T11:26:25.694Z,250
2018-03-29T11:27:35.598Z,235
2018-03-29T11:28:45.863Z,250
2018-03-29T11:29:55.432Z,250
2018-03-29T11:31:05.576Z,250
2018-03-29T11:32:15.694Z,250
2018-03-29T11:33:25.885Z,255
2018-03-29T11:34:35.697Z,245
2018-03-29T11:35:45.819Z,255
2018-03-29T11:36:55.695Z,270
2018-03-29T11:38:05.780Z,285
2018-03-29T11:39:15.946Z,295
2018-03-29T11:40:26.070Z,295
2018-03-29T11:41:35.882Z,285
2018-03-29T11:42:45.974Z,285
2018-03-29T11:43:56.071Z,290
2018-03-29T11:45:05.908Z,280
2018-03-29T11:46:15.769Z,280
2018-03-29T11:47:25.891Z,280
2018-03-29T11:48:36.001Z,280
2018-03-29T11:49:46.079Z,300
2018-03-29T11:50:55.957Z,305
2018-03-29T11:52:06.056Z,320
2018-03-29T11:53:16.145Z,295
2018-03-29T11:54:25.998Z,330
2018-03-29T11:55:36.099Z,270
2018-03-29T11:56:46.387Z,240
2018-03-29T11:57:56.453Z,240
2018-03-29T11:59:06.587Z,225
2018-03-29T12:00:16.419Z,220
2018-03-29T12:01:26.256Z,225
2018-03-29T12:02:36.082Z,245
2018-03-29T12:03:46.177Z,265
2018-03-29T12:04:56.506Z,260
2018-03-29T12:06:06.617Z,255
2018-03-29T12:07:16.692Z,255
2018-03-29T12:08:26.839Z,255
2018-03-29T12:09:36.929Z,260
2018-03-29T12:10:47.033Z,275
2018-03-29T12:11:57.063Z,265
2018-03-29T12:13:06.895Z,270
2018-03-29T12:14:16.790Z,285
2018-03-29T12:15:26.617Z,270
2018-03-29T12:16:36.428Z,250
2018-03-29T12:17:46.522Z,230
2018-03-29T12:18:56.608Z,230
2018-03-29T12:20:06.744Z,230
2018-03-29T12:21:16.848Z,240
2018-03-29T12:22:26.941Z,260
2018-03-29T12:23:37.016Z,265
2018-03-29T12:24:47.129Z,240
2018-03-29T12:25:57.279Z,235
2018-03-29T12:27:07.623Z,235
2018-03-29T12:28:17.914Z,235
2018-03-29T12:29:28.029Z,240
2018-03-29T12:30:38.108Z,235
2018-03-29T12:31:48.181Z,230
2018-03-29T12:32:58.003Z,225
2018-03-29T12:34:08.112Z,225
2018-03-29T12:35:18.219Z,225
2018-03-29T12:36:28.135Z,230
2018-03-29T12:37:38.311Z,230
2018-03-29T12:38:48.394Z,230
2018-03-29T12:39:58.233Z,225
2018-03-29T12:41:08.067Z,220
2018-03-29T12:42:17.898Z,215
2018-03-29T12:43:28.007Z,210
2018-03-29T12:44:37.838Z,205
2018-03-29T12:45:47.964Z,200
2018-03-29T12:46:57.925Z,200
2018-03-29T12:48:08.092Z,190
2018-03-29T12:49:18.275Z,185
2018-03-29T12:50:28.353Z,185
2018-03-29T12:51:38.228Z,180
2018-03-29T12:52:48.330Z,180
2018-03-29T12:53:58.534Z,185
2018-03-29T12:55:08.636Z,190
2018-03-29T12:56:18.734Z,200
2018-03-29T12:57:28.582Z,200
2018-03-29T12:58:38.412Z,205
2018-03-29T12:59:48.271Z,205
2018-03-29T13:00:58.424Z,205
2018-03-29T13:02:08.536Z,205
2018-03-29T13:03:18.674Z,205
2018-03-29T13:04:28.480Z,200
2018-03-29T13:05:38.034Z,200
2018-03-29T13:06:47.844Z,200
2018-03-29T13:07:57.699Z,200
2018-03-29T13:09:07.849Z,200
2018-03-29T13:10:17.664Z,205
2018-03-29T13:11:27.754Z,210
2018-03-29T13:12:37.904Z,210
2018-03-29T13:13:47.737Z,215
2018-03-29T13:14:57.012Z,215
2018-03-29T13:16:06.852Z,210
2018-03-29T13:17:16.953Z,210
2018-03-29T13:18:27.320Z,210
2018-03-29T13:19:37.195Z,215
2018-03-29T13:20:46.770Z,210
2018-03-29T13:21:56.847Z,210
2018-03-29T13:23:06.675Z,205
2018-03-29T13:24:16.774Z,195
2018-03-29T13:25:26.668Z,195
2018-03-29T13:26:36.762Z,195
2018-03-29T13:27:46.594Z,200
2018-03-29T13:28:56.699Z,205
2018-03-29T13:30:06.328Z,210
2018-03-29T13:31:16.145Z,210
2018-03-29T13:32:25.976Z,215
2018-03-29T13:33:35.822Z,205
2018-03-29T13:34:45.655Z,200
2018-03-29T13:35:55.277Z,200
2018-03-29T13:37:05.569Z,195
2018-03-29T13:38:15.657Z,195
2018-03-29T13:39:25.742Z,190
2018-03-29T13:40:35.300Z,190
2018-03-29T13:41:45.168Z,185
2018-03-29T13:42:55.001Z,180
2018-03-29T13:44:05.106Z,180
2018-03-29T13:45:14.681Z,175
2018-03-29T13:46:24.247Z,180
2018-03-29T13:47:34.326Z,170
2018-03-29T13:48:44.249Z,170
2018-03-29T13:49:54.062Z,165
2018-03-29T13:51:03.912Z,160
2018-03-29T13:52:13.742Z,155
2018-03-29T13:53:23.799Z,155
2018-03-29T13:54:33.914Z,150
2018-03-29T13:55:44.007Z,150
2018-03-29T13:56:54.098Z,140
2018-03-29T13:58:03.948Z,130
2018-03-29T13:59:14.045Z,125
2018-03-29T14:00:23.907Z,110
2018-03-29T14:01:33.997Z,105
2018-03-29T14:02:43.572Z,100
2018-03-29T14:03:53.686Z,105
2018-03-29T14:05:03.837Z,110
2018-03-29T14:06:13.926Z,110
2018-03-29T14:07:24.051Z,115
2018-03-29T14:08:33.614Z,115
2018-03-29T14:09:43.719Z,115
2018-03-29T14:10:53.796Z,115
2018-03-29T14:12:03.883Z,120
2018-03-29T14:13:13.470Z,120
2018-03-29T14:14:23.552Z,120
2018-03-29T14:15:33.604Z,115
2018-03-29T14:16:43.686Z,115
2018-03-29T14:17:54.037Z,115
2018-03-29T14:19:04.098Z,110
2018-03-29T14:20:13.387Z,105
2018-03-29T14:21:23.189Z,100
2018-03-29T14:22:33.033Z,95
2018-03-29T14:23:43.349Z,90
2018-03-29T14:24:53.192Z,90
2018-03-29T14:26:03.339Z,85
2018-03-29T14:27:13.207Z,85
2018-03-29T14:28:23.032Z,85
2018-03-29T14:29:33.517Z,90
2018-03-29T14:30:43.378Z,90
2018-03-29T14:31:52.921Z,90
2018-03-29T14:33:02.743Z,90
2018-03-29T14:34:12.554Z,90
2018-03-29T14:35:22.164Z,85
2018-03-29T14:36:31.694Z,85
2018-03-29T14:37:41.739Z,80
2018-03-29T14:38:51.920Z,80
2018-03-29T14:40:01.755Z,75
2018-03-29T14:41:11.910Z,70
2018-03-29T14:42:21.488Z,65
2018-03-29T14:43:31.348Z,65
2018-03-29T14:44:41.453Z,65
2018-03-29T14:45:51.614Z,65
2018-03-29T14:47:01.885Z,60
2018-03-29T14:48:14.330Z,60
2018-03-29T14:49:26.343Z,60
2018-03-29T14:50:39.592Z,65
2018-03-29T14:51:51.749Z,70
2018-03-29T14:53:04.641Z,65
2018-03-29T14:54:17.124Z,65
2018-03-29T14:55:28.914Z,60
2018-03-29T14:56:39.444Z,55
2018-03-29T14:57:50.852Z,55
2018-03-29T14:59:00.824Z,55
2018-03-29T15:00:10.692Z,55
2018-03-29T15:01:20.868Z,55
2018-03-29T15:02:30.417Z,60
2018-03-29T15:03:40.246Z,55
2018-03-29T15:04:50.359Z,55
2018-03-29T15:06:00.420Z,55
2018-03-29T15:07:09.984Z,60
2018-03-29T15:08:19.839Z,60
2018-03-29T15:09:29.658Z,60
2018-03-29T15:10:39.749Z,60
2018-03-29T15:11:49.319Z,60
2018-03-29T15:12:59.401Z,65
2018-03-29T15:14:09.563Z,65
2018-03-29T15:15:19.391Z,65
2018-03-29T15:16:29.486Z,65
2018-03-29T15:17:39.586Z,65
2018-03-29T15:18:49.466Z,65
2018-03-29T15:19:59.288Z,65
2018-03-29T15:21:09.385Z,65
2018-03-29T15:22:19.492Z,65
2018-03-29T15:23:29.575Z,60
2018-03-29T15:24:39.701Z,60
2018-03-29T15:25:49.818Z,55
2018-03-29T15:26:59.380Z,55
2018-03-29T15:28:09.504Z,50
2018-03-29T15:29:19.601Z,50
2018-03-29T15:30:29.165Z,50
2018-03-29T15:31:39.130Z,45
2018-03-29T15:32:48.956Z,45
2018-03-29T15:33:59.078Z,45
2018-03-29T15:35:09.415Z,45
2018-03-29T15:36:19.516Z,45
2018-03-29T15:37:29.821Z,45
2018-03-29T15:38:39.980Z,45
2018-03-29T15:39:50.080Z,45
2018-03-29T15:41:00.199Z,45
2018-03-29T15:42:09.807Z,45
2018-03-29T15:43:19.612Z,40
2018-03-29T15:44:29.455Z,40
2018-03-29T15:45:39.538Z,40
2018-03-29T15:46:49.136Z,40
2018-03-29T15:47:59.242Z,35
2018-03-29T15:49:09.104Z,30
2018-03-29T15:50:19.429Z,30
2018-03-29T15:51:29.580Z,30
2018-03-29T15:52:39.396Z,30
2018-03-29T15:53:49.365Z,30
2018-03-29T15:54:59.454Z,30
2018-03-29T15:57:53.926Z,30
2018-03-29T15:59:04.088Z,30
2018-03-29T16:00:14.412Z,30
2018-03-29T16:01:24.232Z,30
2018-03-29T16:02:34.528Z,25
2018-03-29T16:03:44.647Z,25
2018-03-29T16:04:54.829Z,20
2018-03-29T16:06:04.669Z,15
2018-03-29T16:07:14.748Z,15
2018-03-29T16:08:24.859Z,15
2018-03-29T16:09:34.948Z,15
2018-03-29T16:10:45.071Z,10
2018-03-29T16:11:54.917Z,10
2018-03-29T16:13:04.747Z,10
2018-03-29T16:14:14.583Z,10
2018-03-29T16:15:24.700Z,10
2018-03-29T16:16:34.901Z,10
2018-03-29T16:17:44.480Z,10
2018-03-29T16:18:54.572Z,10
2018-03-29T16:20:04.666Z,10
2018-03-29T16:21:14.514Z,10
2018-03-29T16:22:24.606Z,10
2018-03-29T16:23:34.685Z,10
2018-03-29T16:24:44.777Z,10
2018-03-29T16:25:54.333Z,10
2018-03-29T16:27:04.154Z,10
2018-03-29T16:28:14.010Z,10
2018-03-29T16:29:23.570Z,10
2018-03-29T16:30:33.664Z,5
2018-03-29T16:31:43.240Z,5
2018-03-29T16:32:53.091Z,5
2018-03-29T16:34:03.180Z,5
2018-03-29T16:35:13.263Z,5
2018-03-29T16:36:23.363Z,5
2018-03-29T16:37:33.455Z,5
2018-03-29T16:38:43.540Z,5
2018-03-29T16:39:53.627Z,5
2018-03-29T16:41:03.703Z,5
2018-03-29T16:42:13.530Z,5
2018-03-29T16:43:23.690Z,5
2018-03-29T16:44:33.785Z,5
2018-03-29T16:45:43.894Z,5
2018-03-29T16:46:53.746Z,5
2018-03-29T16:48:03.820Z,5
2018-03-29T16:49:13.944Z,5
2018-03-29T16:50:24.039Z,5
2018-03-29T16:51:34.124Z,5
2018-03-29T16:52:44.205Z,5
2018-03-29T16:53:54.310Z,5
2018-03-29T16:55:04.388Z,0
2018-03-29T16:56:14.493Z,0
2018-03-29T16:57:24.573Z,0
2018-03-29T16:58:34.660Z,0
2018-03-29T16:59:44.489Z,0
2018-03-29T17:00:54.579Z,0
2018-03-29T17:02:04.427Z,0
2018-03-29T17:03:14.259Z,0
2018-03-29T17:04:24.340Z,0
2018-03-29T17:05:33.900Z,0
2018-03-29T17:06:44.464Z,0
2018-03-29T17:07:54.982Z,0
2018-03-29T17:09:05.106Z,0
2018-03-29T17:10:14.937Z,0
2018-03-29T17:11:24.751Z,0
2018-03-29T17:12:34.645Z,0
2018-03-29T17:13:44.190Z,0
2018-03-29T17:14:54.243Z,0